Flight Track Log - Related Links

Times and Time Zones

All times are in EDT time to prevent confusion due to time zone crossing. See the KAP82 flight status page for this flight to view local times or setup timezone preferences in your user account.

Time Position Orientation Groundspeed Altitude Reporting Facility
EDT Latitude Longitude Course Direction KTS MPH feet Rate Location/Type
Tue 06:30:45 PM 42.7517 -73.7208 86° East 117 135 1,500  Level Boston Center
Tue 06:31:46 PM 42.7583 -73.6786 78° East 119 137 2,000 496 Climbing Boston Center
Tue 06:32:46 PM 42.7608 -73.6333 86° East 119 137 2,500 446 Climbing Boston Center
Tue 06:33:47 PM 42.7594 -73.5853 92° East 126 145 2,900 295 Climbing Boston Center
Tue 06:34:48 PM 42.7556 -73.5372 96° East 133 153 3,100 313 Climbing Boston Center
Tue 06:35:42 PM 42.7478 -73.4919 103° East 139 160 3,500 397 Climbing Boston Center
Tue 06:37:04 PM 42.7381 -73.4239 101° East 153 176 4,000 423 Climbing Boston Center
Tue 06:38:04 PM 42.7322 -73.3700 98° East 142 163 4,500 407 Climbing Boston Center
Tue 06:39:02 PM 42.7242 -73.3219 103° East 137 158 4,800 356 Climbing Boston Center
Tue 06:40:02 PM 42.7078 -73.2736 115° Southeast 137 158 5,200 397 Climbing Boston Center
Tue 06:41:03 PM 42.6958 -73.2256 109° East 132 152 5,600 397 Climbing Boston Center
Tue 06:42:03 PM 42.6772 -73.1800 119° Southeast 132 152 6,000 450 Climbing Boston Center
Tue 06:43:03 PM 42.6589 -73.1403 122° Southeast 137 158 6,500 446 Climbing Boston Center
Tue 06:44:04 PM 42.6422 -73.0950 117° Southeast 137 158 6,900 344 Climbing Boston Center
Tue 06:45:05 PM 42.6239 -73.0525 120° Southeast 137 158 7,200 305 Climbing Boston Center
Tue 06:46:02 PM 42.6033 -73.0042 120° Southeast 137 158 7,500 153 Climbing Boston Center
Tue 06:47:03 PM 42.5867 -72.9589 117° Southeast 137 158 7,500  Level Boston Center
Tue 06:48:04 PM 42.5600 -72.8994 121° Southeast 150 173 7,500  Level Boston Center
Tue 06:49:04 PM 42.5392 -72.8486 119° Southeast 169 194 7,500  Level Boston Center
Tue 06:50:03 PM 42.5144 -72.7867 118° Southeast 169 194 7,500  Level Boston Center
Tue 06:51:04 PM 42.4981 -72.7386 115° Southeast 169 194 7,500  Level Boston Center
Tue 06:52:02 PM 42.4897 -72.6794 101° East 156 180 7,500  Level Boston Center
Tue 06:53:02 PM 42.4858 -72.6231 95° East 150 173 7,500  Level Boston Center
Tue 06:54:03 PM 42.4775 -72.5667 101° East 150 173 7,500  Level Boston Center
Tue 06:55:03 PM 42.4753 -72.5078 93° East 150 173 7,500  Level Boston Center
Tue 06:56:04 PM 42.4733 -72.4486 93° East 150 173 7,500  Level Boston Center
Tue 06:57:02 PM 42.4714 -72.3894 93° East 150 173 7,500  Level Boston Center
Tue 06:58:03 PM 42.4711 -72.3303 90° East 155 178 7,500  Level Boston Center
Tue 06:59:03 PM 42.4669 -72.2656 95° East 155 178 7,500 197 Level Boston Center
Tue 07:00:05 PM 42.4606 -72.2122 99° East 150 173 7,900 252 Climbing Boston Center
Tue 07:01:02 PM 42.4522 -72.1644 103° East 137 158 8,000 205 Climbing Boston Center
Tue 07:02:02 PM 42.4478 -72.1108 96° East 137 158 8,300 -50 Climbing Boston Center
Tue 07:03:03 PM 42.4519 -72.0547 84° East 137 158 7,900 -347 Descending Boston Center
Tue 07:04:03 PM 42.4517 -71.9869 90° East 162 186 7,600 -198 Descending Boston Center
Tue 07:05:04 PM 42.4492 -71.9308 93° East 167 192 7,500 -50 Descending Boston Center
Tue 07:06:04 PM 42.4447 -71.8633 95° East 162 186 7,500  Level Boston Center
Tue 07:07:04 PM 42.4383 -71.8100 99° East 162 186 7,500 -254 Level Boston Center
Tue 07:08:02 PM 42.4336 -71.7425 95° East 162 186 7,000 -559 Descending Boston Center
Tue 07:09:02 PM 42.4311 -71.6806 93° East 167 192 6,400 -566 Descending Boston Center
Tue 07:09:48 PM 42.4333 -71.6167 87° East 183 211 6,000 -509 Descending KA90
Tue 07:10:48 PM 42.4333 -71.5500 90° East 183 211 5,500 -450 Descending KA90
Tue 07:11:48 PM 42.4500 -71.4833 71° East 199 229 5,100 -450 Descending KA90
Tue 07:12:48 PM 42.4500 -71.4167 90° East 173 199 4,600 -238 Descending KA90
Tue 07:13:54 PM 42.4333 -71.3667 114° Southeast 163 188 4,600 -50 Level KA90
Tue 07:14:48 PM 42.4000 -71.3167 132° Southeast 164 189 4,500 -47 Descending KA90
Tue 07:16:02 PM 42.3611 -71.2769 143° Southeast 166 191 4,500  Level Boston Center
Tue 07:17:03 PM 42.3172 -71.2581 162° South 159 183 4,500 -298 Level Boston Center
Tue 07:18:03 PM 42.2733 -71.2447 167° South 167 192 3,900 -744 Descending Boston Center
Tue 07:19:04 PM 42.2125 -71.2292 169° South 195 224 3,000 -446 Descending Boston Center
Tue 07:20:04 PM 42.2017 -71.1817 107° East 145 167 3,000 -298 Level Boston Center
Tue 07:21:05 PM 42.2344 -71.1361 46° Northeast 140 161 2,400 -686 Descending Boston Center
Tue 07:21:49 PM 42.2667 -71.1000 40° Northeast 164 189 1,800 -577 Descending KA90
Tue 07:22:49 PM 42.3000 -71.0667 36° Northeast 148 170 1,400 -550 Descending KA90
Tue 07:23:49 PM 42.3333 -71.0333 36° Northeast 133 153 700 -591 Descending KA90
Tue 07:25:01 PM 42.3500 -71.0167 36° Northeast 104 120 100 -500 Descending KA90
Tue 07:27:00 PM 42.3500 -71.0000 36° Northeast  Level FlightAware Approximate
Tue 07:34:00 PM 42.3630 -71.0064 36° Northeast  Level Estimated

Login

Don't have an account? Register now (free) for customized features, flight alerts, and more!